createdAt,value
2022-10-26T00:01:30.327Z,4.40
2022-10-26T00:04:32.093Z,5.00
2022-10-26T00:07:33.928Z,5.35
2022-10-26T00:10:36.696Z,5.70
2022-10-26T00:13:39.339Z,6.25
2022-10-26T00:16:41.320Z,6.18
2022-10-26T00:19:42.954Z,5.88
2022-10-26T00:22:44.883Z,6.45
2022-10-26T00:25:55.012Z,7.05
2022-10-26T00:28:57.797Z,5.05
2022-10-26T00:31:59.405Z,7.18
2022-10-26T00:35:10.521Z,8.50
2022-10-26T00:38:23.006Z,6.07
2022-10-26T00:41:30.571Z,6.00
2022-10-26T00:44:47.468Z,6.30
2022-10-26T00:48:13.477Z,5.90
2022-10-26T00:51:39.109Z,6.32
2022-10-26T00:54:41.142Z,6.32
2022-10-26T00:57:42.860Z,5.55
2022-10-26T01:00:45.258Z,5.25
2022-10-26T01:03:48.034Z,5.93
2022-10-26T01:06:50.061Z,8.07
2022-10-26T01:09:52.124Z,7.65
2022-10-26T01:12:56.104Z,6.80
2022-10-26T01:16:40.800Z,6.35
2022-10-26T01:19:57.613Z,6.57
2022-10-26T01:23:15.006Z,5.85
2022-10-26T01:26:42.741Z,5.95
2022-10-26T01:29:53.644Z,6.18
2022-10-26T01:33:13.424Z,6.13
2022-10-26T01:36:40.147Z,6.60
2022-10-26T01:39:47.851Z,6.05
2022-10-26T01:42:52.610Z,6.03
2022-10-26T01:45:55.926Z,5.97
2022-10-26T01:52:01.033Z,5.40
2022-10-26T01:55:05.934Z,6.65
2022-10-26T01:58:21.484Z,5.78
2022-10-26T02:01:38.672Z,6.10
2022-10-26T02:05:14.016Z,6.30
2022-10-26T02:08:38.436Z,7.70
2022-10-26T02:11:44.023Z,5.95
2022-10-26T02:15:05.692Z,6.22
2022-10-26T02:18:55.912Z,6.47
2022-10-26T02:22:22.109Z,5.32
2022-10-26T02:25:28.448Z,5.65
2022-10-26T02:28:35.839Z,6.00
2022-10-26T02:31:38.606Z,6.20
2022-10-26T02:34:44.769Z,6.20
2022-10-26T02:37:48.830Z,5.70
2022-10-26T02:40:51.817Z,5.88
2022-10-26T02:43:57.872Z,5.75
2022-10-26T02:47:00.242Z,6.13
2022-10-26T02:50:02.528Z,7.65
2022-10-26T02:53:22.981Z,8.02
2022-10-26T02:56:30.426Z,8.13
2022-10-26T02:59:36.151Z,9.93
2022-10-26T03:02:38.031Z,8.75
2022-10-26T03:05:43.285Z,9.20
2022-10-26T03:08:45.053Z,9.70
2022-10-26T03:11:46.802Z,9.77
2022-10-26T03:14:48.434Z,7.68
2022-10-26T03:17:50.565Z,6.95
2022-10-26T03:20:52.362Z,6.95
2022-10-26T03:23:54.729Z,6.60
2022-10-26T03:26:59.575Z,6.03
2022-10-26T03:30:04.541Z,5.15
2022-10-26T03:33:06.365Z,5.77
2022-10-26T03:36:08.516Z,5.90
2022-10-26T03:39:10.442Z,6.75
2022-10-26T03:42:12.007Z,7.35
2022-10-26T03:45:13.721Z,8.80
2022-10-26T03:48:15.386Z,8.15
2022-10-26T03:51:17.351Z,8.02
2022-10-26T03:54:19.477Z,7.55
2022-10-26T03:57:21.651Z,8.27
2022-10-26T04:00:23.572Z,7.18
2022-10-26T04:03:25.292Z,6.38
2022-10-26T04:06:27.081Z,6.63
2022-10-26T04:09:28.668Z,6.03
2022-10-26T04:12:30.315Z,6.72
2022-10-26T04:15:32.130Z,6.30
2022-10-26T04:18:33.772Z,7.90
2022-10-26T04:21:35.560Z,6.97
2022-10-26T04:24:37.189Z,6.18
2022-10-26T04:27:39.111Z,6.20
2022-10-26T04:30:40.802Z,6.93
2022-10-26T04:33:42.427Z,7.25
2022-10-26T04:36:44.051Z,6.45
2022-10-26T04:39:45.706Z,6.95
2022-10-26T04:42:48.193Z,6.00
2022-10-26T04:45:50.414Z,6.32
2022-10-26T04:48:52.040Z,6.35
2022-10-26T04:51:53.821Z,7.10
2022-10-26T04:54:55.477Z,6.28
2022-10-26T04:58:00.229Z,6.50
2022-10-26T05:01:03.608Z,5.20
2022-10-26T05:04:05.437Z,5.18
2022-10-26T05:07:07.035Z,4.40
2022-10-26T05:10:09.850Z,4.80
2022-10-26T05:13:11.462Z,4.88
2022-10-26T05:16:13.163Z,4.40
2022-10-26T05:19:14.860Z,5.30
2022-10-26T05:22:16.572Z,5.47
2022-10-26T05:25:18.217Z,5.13
2022-10-26T05:28:19.955Z,5.03
2022-10-26T05:31:21.828Z,4.30
2022-10-26T05:34:23.486Z,5.07
2022-10-26T05:37:28.821Z,4.88
2022-10-26T05:40:30.417Z,5.10
2022-10-26T05:43:32.104Z,4.53
2022-10-26T05:46:33.700Z,5.28
2022-10-26T05:49:35.401Z,4.88
2022-10-26T05:52:47.178Z,6.25
2022-10-26T05:55:49.263Z,5.90
2022-10-26T05:58:51.242Z,4.75
2022-10-26T06:02:11.800Z,6.28
2022-10-26T06:05:21.336Z,5.68
2022-10-26T06:08:25.479Z,5.70
2022-10-26T06:11:27.307Z,5.25
2022-10-26T06:14:29.575Z,5.30
2022-10-26T06:17:53.845Z,6.35
2022-10-26T06:20:55.453Z,5.13
2022-10-26T06:24:16.167Z,5.20
2022-10-26T06:27:26.850Z,5.85
2022-10-26T06:30:28.621Z,5.82
2022-10-26T06:33:30.837Z,5.90
2022-10-26T06:36:33.607Z,5.60
2022-10-26T06:39:39.849Z,5.90
2022-10-26T06:42:42.199Z,5.90
2022-10-26T06:45:47.052Z,6.90
2022-10-26T06:49:02.228Z,6.32
2022-10-26T06:52:09.804Z,5.20
2022-10-26T06:55:15.933Z,5.18
2022-10-26T06:58:20.238Z,5.80
2022-10-26T07:01:22.038Z,5.68
2022-10-26T07:04:26.670Z,6.10
2022-10-26T07:07:31.090Z,5.78
2022-10-26T07:10:35.133Z,4.97
2022-10-26T07:13:36.771Z,4.95
2022-10-26T07:16:38.377Z,5.35
2022-10-26T07:19:44.744Z,6.63
2022-10-26T07:22:52.396Z,6.50
2022-10-26T07:25:54.013Z,6.13
2022-10-26T07:28:56.826Z,6.40
2022-10-26T07:31:58.534Z,7.57
2022-10-26T07:35:00.183Z,8.55
2022-10-26T07:38:02.625Z,9.93
2022-10-26T07:41:05.229Z,7.77
2022-10-26T07:44:06.811Z,8.13
2022-10-26T07:47:08.459Z,7.38
2022-10-26T07:50:11.969Z,8.18
2022-10-26T07:53:13.673Z,7.22
2022-10-26T07:56:15.570Z,7.80
2022-10-26T07:59:18.401Z,8.35
2022-10-26T08:02:20.039Z,7.78
2022-10-26T08:05:21.714Z,7.70
2022-10-26T08:08:23.471Z,6.93
2022-10-26T08:11:25.078Z,9.05
2022-10-26T08:14:26.723Z,6.88
2022-10-26T08:17:29.508Z,7.45
2022-10-26T08:20:31.173Z,6.68
2022-10-26T08:23:33.448Z,6.18
2022-10-26T08:26:35.154Z,5.78
2022-10-26T08:29:36.935Z,5.88
2022-10-26T08:32:38.741Z,7.65
2022-10-26T08:35:40.500Z,7.47
2022-10-26T08:38:42.114Z,6.40
2022-10-26T08:41:46.814Z,6.30
2022-10-26T08:44:52.631Z,6.18
2022-10-26T08:47:59.769Z,5.55
2022-10-26T08:51:06.959Z,6.30
2022-10-26T08:54:21.073Z,6.07
2022-10-26T08:57:33.606Z,7.30
2022-10-26T09:00:35.543Z,6.47
2022-10-26T09:03:37.215Z,6.75
2022-10-26T09:07:13.308Z,6.38
2022-10-26T09:14:01.572Z,6.97
2022-10-26T09:17:37.639Z,8.27
2022-10-26T09:20:55.789Z,6.50
2022-10-26T09:24:05.399Z,5.90
2022-10-26T09:27:16.365Z,6.20
2022-10-26T09:30:21.154Z,4.60
2022-10-26T09:33:25.000Z,4.40
2022-10-26T09:36:27.288Z,3.80
2022-10-26T09:39:36.759Z,6.05
2022-10-26T09:42:58.175Z,3.75
2022-10-26T09:45:59.838Z,3.63
2022-10-26T09:49:06.363Z,3.40
2022-10-26T09:52:08.518Z,4.00
2022-10-26T09:55:14.525Z,2.73
2022-10-26T09:58:20.961Z,3.40
2022-10-26T10:01:35.640Z,4.05
2022-10-26T10:04:46.887Z,5.03
2022-10-26T10:07:48.613Z,2.60
2022-10-26T10:10:54.660Z,2.10
2022-10-26T10:14:08.910Z,2.10
2022-10-26T10:17:22.670Z,1.98
2022-10-26T10:20:32.701Z,2.03
2022-10-26T10:23:48.203Z,1.85
2022-10-26T10:27:03.181Z,2.17
2022-10-26T10:30:22.570Z,2.15
2022-10-26T10:33:33.814Z,2.42
2022-10-26T10:36:35.609Z,2.15
2022-10-26T10:39:40.751Z,2.30
2022-10-26T10:42:44.087Z,2.33
2022-10-26T10:45:52.787Z,2.17
2022-10-26T10:49:03.871Z,2.50
2022-10-26T10:52:05.526Z,2.17
2022-10-26T10:55:13.366Z,2.50
2022-10-26T10:58:57.182Z,2.17
2022-10-26T11:02:30.026Z,2.05
2022-10-26T11:06:09.534Z,2.10
2022-10-26T11:09:18.556Z,2.10
2022-10-26T11:12:27.368Z,2.58
2022-10-26T11:15:34.180Z,2.55
2022-10-26T11:18:43.940Z,2.60
2022-10-26T11:21:49.103Z,2.58
2022-10-26T11:25:03.205Z,2.50
2022-10-26T11:28:11.123Z,2.72
2022-10-26T11:31:42.031Z,2.83
2022-10-26T11:35:00.509Z,2.30
2022-10-26T11:38:05.643Z,2.22
2022-10-26T11:41:30.143Z,2.03
2022-10-26T11:44:58.214Z,2.00
2022-10-26T11:48:07.566Z,2.30
2022-10-26T11:51:18.486Z,1.98
2022-10-26T11:54:31.177Z,2.30
2022-10-26T11:57:35.410Z,2.38
2022-10-26T12:00:53.410Z,1.90
2022-10-26T12:03:59.876Z,2.00
2022-10-26T12:07:04.587Z,2.20
2022-10-26T12:10:23.795Z,1.88
2022-10-26T12:13:37.788Z,1.83
2022-10-26T12:17:09.956Z,1.70
2022-10-26T12:20:49.382Z,1.70
2022-10-26T12:24:02.495Z,2.47
2022-10-26T12:27:06.100Z,1.67
2022-10-26T12:30:18.478Z,1.98
2022-10-26T12:33:30.409Z,1.52
2022-10-26T12:36:57.111Z,1.92
2022-10-26T12:40:33.182Z,1.70
2022-10-26T12:43:39.880Z,1.77
2022-10-26T12:46:45.508Z,1.60
2022-10-26T12:50:09.360Z,1.80
2022-10-26T12:53:13.832Z,1.80
2022-10-26T12:56:20.285Z,1.50
2022-10-26T12:59:25.845Z,1.67
2022-10-26T13:02:48.990Z,1.90
2022-10-26T13:06:26.419Z,1.55
2022-10-26T13:09:30.287Z,1.73
2022-10-26T13:12:52.791Z,1.48
2022-10-26T13:15:56.758Z,1.48
2022-10-26T13:18:59.491Z,1.60
2022-10-26T13:25:05.827Z,1.30
2022-10-26T13:28:39.789Z,1.33
2022-10-26T13:31:41.602Z,1.40
2022-10-26T13:34:44.261Z,1.30
2022-10-26T13:37:48.901Z,1.40
2022-10-26T13:40:57.998Z,1.90
2022-10-26T13:44:03.943Z,1.48
2022-10-26T13:47:30.295Z,1.25
2022-10-26T13:50:38.285Z,1.50
2022-10-26T13:53:59.618Z,1.40
2022-10-26T13:57:15.349Z,1.48
2022-10-26T14:00:21.023Z,1.38
2022-10-26T14:03:22.856Z,1.55
2022-10-26T14:06:24.453Z,1.55
2022-10-26T14:09:28.842Z,1.38
2022-10-26T14:12:30.765Z,1.42
2022-10-26T14:15:33.849Z,1.77
2022-10-26T14:18:38.034Z,1.67
2022-10-26T14:21:40.491Z,1.70
2022-10-26T14:24:59.861Z,1.80
2022-10-26T14:28:04.830Z,1.63
2022-10-26T14:31:34.111Z,1.58
2022-10-26T14:34:35.750Z,1.80
2022-10-26T14:37:44.257Z,1.52
2022-10-26T14:40:46.623Z,1.50
2022-10-26T14:43:48.752Z,1.48
2022-10-26T14:46:50.798Z,1.58
2022-10-26T14:49:52.991Z,1.90
2022-10-26T14:52:58.212Z,2.08
2022-10-26T14:56:00.398Z,1.50
2022-10-26T14:59:24.995Z,1.88
2022-10-26T15:02:26.839Z,1.80
2022-10-26T15:05:35.827Z,1.40
2022-10-26T15:08:55.945Z,1.70
2022-10-26T15:11:59.154Z,1.50
2022-10-26T15:18:27.242Z,2.25
2022-10-26T15:21:45.549Z,2.30
2022-10-26T15:24:54.594Z,1.92
2022-10-26T15:28:19.629Z,1.75
2022-10-26T15:31:21.492Z,1.65
2022-10-26T15:34:24.442Z,1.80
2022-10-26T15:37:28.725Z,1.80
2022-10-26T15:40:32.831Z,2.20
2022-10-26T15:43:35.065Z,1.88
2022-10-26T15:46:39.147Z,2.13
2022-10-26T15:49:40.955Z,1.73
2022-10-26T15:52:45.339Z,1.73
2022-10-26T15:55:52.632Z,1.60
2022-10-26T15:58:54.821Z,1.60
2022-10-26T16:01:56.502Z,2.40
2022-10-26T16:04:58.186Z,3.00
2022-10-26T16:07:59.896Z,3.67
2022-10-26T16:11:01.568Z,3.50
2022-10-26T16:14:04.000Z,2.80
2022-10-26T16:17:06.880Z,2.72
2022-10-26T16:20:16.710Z,2.75
2022-10-26T16:23:18.291Z,4.30
2022-10-26T16:26:21.162Z,9.15
2022-10-26T16:29:22.851Z,4.43
2022-10-26T16:32:24.615Z,3.45
2022-10-26T16:35:26.248Z,4.20
2022-10-26T16:38:31.484Z,3.30
2022-10-26T16:41:34.146Z,2.70
2022-10-26T16:44:36.488Z,3.63
2022-10-26T16:47:40.086Z,3.97
2022-10-26T16:50:41.669Z,5.57
2022-10-26T16:53:43.434Z,5.68
2022-10-26T16:56:45.173Z,4.15
2022-10-26T16:59:46.833Z,3.33
2022-10-26T17:02:48.451Z,5.50
2022-10-26T17:06:00.878Z,3.83
2022-10-26T17:09:02.478Z,3.70
2022-10-26T17:12:04.718Z,2.65
2022-10-26T17:15:06.934Z,5.20
2022-10-26T17:18:10.726Z,5.25
2022-10-26T17:21:15.102Z,4.70
2022-10-26T17:24:16.827Z,4.60
2022-10-26T17:27:19.235Z,7.00
2022-10-26T17:30:20.905Z,6.15
2022-10-26T17:33:22.738Z,7.97
2022-10-26T17:36:25.744Z,8.63
2022-10-26T17:39:27.466Z,7.60
2022-10-26T17:42:29.087Z,7.40
2022-10-26T17:45:30.784Z,7.28
2022-10-26T17:48:33.076Z,6.72
2022-10-26T17:51:34.838Z,7.25
2022-10-26T17:54:36.505Z,6.35
2022-10-26T17:57:38.157Z,6.20
2022-10-26T18:00:40.273Z,7.22
2022-10-26T18:03:42.470Z,7.55
2022-10-26T18:06:44.061Z,5.13
2022-10-26T18:09:45.772Z,4.32
2022-10-26T18:12:47.473Z,5.32
2022-10-26T18:15:49.130Z,7.18
2022-10-26T18:19:00.059Z,7.50
2022-10-26T18:22:02.029Z,7.60
2022-10-26T18:25:03.795Z,8.15
2022-10-26T18:28:05.490Z,9.00
2022-10-26T18:31:08.777Z,6.72
2022-10-26T18:34:10.918Z,6.32
2022-10-26T18:37:12.462Z,9.90
2022-10-26T18:40:14.139Z,7.45
2022-10-26T18:43:15.946Z,7.10
2022-10-26T18:46:23.984Z,11.80
2022-10-26T18:49:26.692Z,40.55
2022-10-26T18:52:28.551Z,17.73
2022-10-26T18:55:30.214Z,13.40
2022-10-26T18:58:33.374Z,22.98
2022-10-26T19:04:38.039Z,9.17
2022-10-26T19:07:40.054Z,8.93
2022-10-26T19:10:41.824Z,8.43
2022-10-26T19:13:44.082Z,7.72
2022-10-26T19:16:47.215Z,7.15
2022-10-26T19:19:49.413Z,6.75
2022-10-26T19:22:53.331Z,7.18
2022-10-26T19:25:55.988Z,6.90
2022-10-26T19:28:59.399Z,14.57
2022-10-26T19:32:02.903Z,11.20
2022-10-26T19:35:04.850Z,7.78
2022-10-26T19:38:06.624Z,8.05
2022-10-26T19:41:11.657Z,6.13
2022-10-26T19:44:14.853Z,6.70
2022-10-26T19:47:17.074Z,6.88
2022-10-26T19:50:18.740Z,7.15
2022-10-26T19:53:22.134Z,8.43
2022-10-26T19:56:23.826Z,7.85
2022-10-26T19:59:28.997Z,6.60
2022-10-26T20:02:30.666Z,7.40
2022-10-26T20:05:32.382Z,7.00
2022-10-26T20:08:38.050Z,7.38
2022-10-26T20:11:43.250Z,11.10
2022-10-26T20:14:45.124Z,6.03
2022-10-26T20:17:46.815Z,6.22
2022-10-26T20:20:49.008Z,9.48
2022-10-26T20:23:50.983Z,6.70
2022-10-26T20:26:52.870Z,6.53
2022-10-26T20:29:54.731Z,6.47
2022-10-26T20:32:57.503Z,5.55
2022-10-26T20:36:00.354Z,4.93
2022-10-26T20:39:02.373Z,6.95
2022-10-26T20:42:05.580Z,7.15
2022-10-26T20:45:16.819Z,3.78
2022-10-26T20:48:19.234Z,3.63
2022-10-26T20:52:02.745Z,5.10
2022-10-26T20:55:35.509Z,6.65
2022-10-26T20:58:44.356Z,6.78
2022-10-26T21:01:45.989Z,6.90
2022-10-26T21:04:47.669Z,6.40
2022-10-26T21:07:49.506Z,6.70
2022-10-26T21:10:52.026Z,7.05
2022-10-26T21:13:54.507Z,7.73
2022-10-26T21:16:56.210Z,7.40
2022-10-26T21:19:58.197Z,6.95
2022-10-26T21:23:00.114Z,6.28
2022-10-26T21:26:05.444Z,7.05
2022-10-26T21:29:07.139Z,6.05
2022-10-26T21:32:09.174Z,5.45
2022-10-26T21:35:10.766Z,5.75
2022-10-26T21:38:12.363Z,5.80
2022-10-26T21:41:19.739Z,5.43
2022-10-26T21:44:38.660Z,5.53
2022-10-26T21:47:41.752Z,4.93
2022-10-26T21:50:43.610Z,4.20
2022-10-26T21:53:46.680Z,4.30
2022-10-26T21:56:48.280Z,4.80
2022-10-26T21:59:49.936Z,6.45
2022-10-26T22:02:52.700Z,7.40
2022-10-26T22:05:54.623Z,6.85
2022-10-26T22:08:56.589Z,7.78
2022-10-26T22:11:58.221Z,6.95
2022-10-26T22:15:00.047Z,7.63
2022-10-26T22:18:01.924Z,12.45
2022-10-26T22:21:04.322Z,9.82
2022-10-26T22:24:07.123Z,11.30
2022-10-26T22:27:08.857Z,7.13
2022-10-26T22:30:11.640Z,8.50
2022-10-26T22:33:13.582Z,9.07
2022-10-26T22:36:15.987Z,12.02
2022-10-26T22:39:18.120Z,8.57
2022-10-26T22:42:19.715Z,9.05
2022-10-26T22:45:21.353Z,8.55
2022-10-26T22:48:22.957Z,7.22
2022-10-26T22:51:26.195Z,5.90
2022-10-26T22:54:27.844Z,8.15
2022-10-26T22:57:29.860Z,9.07
2022-10-26T23:00:31.460Z,8.02
2022-10-26T23:03:33.627Z,6.50
2022-10-26T23:06:35.584Z,6.90
2022-10-26T23:09:37.286Z,5.60
2022-10-26T23:12:39.024Z,5.65
2022-10-26T23:15:40.662Z,5.25
2022-10-26T23:18:42.323Z,5.20
2022-10-26T23:21:44.036Z,6.85
2022-10-26T23:24:45.609Z,5.65
2022-10-26T23:27:47.195Z,6.13
2022-10-26T23:30:48.862Z,6.00
2022-10-26T23:33:51.401Z,4.82
2022-10-26T23:36:53.299Z,5.40
2022-10-26T23:39:54.919Z,5.45
2022-10-26T23:42:59.442Z,5.53
2022-10-26T23:46:01.610Z,4.95
2022-10-26T23:49:03.217Z,5.40
2022-10-26T23:52:05.066Z,5.38
2022-10-26T23:55:07.349Z,5.13
2022-10-26T23:58:08.976Z,5.03
